createdAt,value
2018-08-10T00:01:28.479Z,54.98
2018-08-10T00:03:57.075Z,54.59
2018-08-10T00:06:25.763Z,55.45
2018-08-10T00:08:55.346Z,55.77
2018-08-10T00:11:23.920Z,55.12
2018-08-10T00:13:52.479Z,54.55
2018-08-10T00:16:23.204Z,55.04
2018-08-10T00:18:51.829Z,54.63
2018-08-10T00:21:25.823Z,53.65
2018-08-10T00:23:54.819Z,54.11
2018-08-10T00:26:23.388Z,54.80
2018-08-10T00:28:52.000Z,54.54
2018-08-10T00:31:21.008Z,54.64
2018-08-10T00:33:49.524Z,55.57
2018-08-10T00:36:18.112Z,55.57
2018-08-10T00:38:47.099Z,55.43
2018-08-10T00:41:15.718Z,55.06
2018-08-10T00:43:44.304Z,55.89
2018-08-10T00:46:20.011Z,56.39
2018-08-10T00:48:48.544Z,56.36
2018-08-10T00:51:20.311Z,55.92
2018-08-10T00:53:49.347Z,56.32
2018-08-10T00:56:18.187Z,56.95
2018-08-10T00:58:46.777Z,56.23
2018-08-10T01:01:15.709Z,56.57
2018-08-10T01:03:48.648Z,56.55
2018-08-10T01:06:22.026Z,56.10
2018-08-10T01:08:51.481Z,55.47
2018-08-10T01:11:20.111Z,55.96
2018-08-10T01:13:51.603Z,56.49
2018-08-10T01:16:20.597Z,56.08
2018-08-10T01:18:49.174Z,55.92
2018-08-10T01:21:24.725Z,55.77
2018-08-10T01:23:54.057Z,55.66
2018-08-10T01:26:22.586Z,55.77
2018-08-10T01:28:51.250Z,55.95
2018-08-10T01:31:20.620Z,55.09
2018-08-10T01:33:53.218Z,56.07
2018-08-10T01:36:21.801Z,55.31
2018-08-10T01:38:50.807Z,56.93
2018-08-10T01:41:19.337Z,56.90
2018-08-10T01:43:47.887Z,56.83
2018-08-10T01:46:16.971Z,57.49
2018-08-10T01:48:45.515Z,57.62
2018-08-10T01:51:14.089Z,57.57
2018-08-10T01:53:43.165Z,58.30
2018-08-10T01:56:11.729Z,57.85
2018-08-10T01:58:42.173Z,58.53
2018-08-10T02:01:11.168Z,58.68
2018-08-10T02:03:39.736Z,58.43
2018-08-10T02:06:08.343Z,58.92
2018-08-10T02:08:37.288Z,58.85
2018-08-10T02:11:05.852Z,59.85
2018-08-10T02:13:34.403Z,59.15
2018-08-10T02:16:04.184Z,59.41
2018-08-10T02:18:33.583Z,59.25
2018-08-10T02:21:02.413Z,59.02
2018-08-10T02:23:31.592Z,59.32
2018-08-10T02:26:00.414Z,59.61
2018-08-10T02:28:28.972Z,60.31
2018-08-10T02:30:58.032Z,60.57
2018-08-10T02:33:26.620Z,60.60
2018-08-10T02:35:55.207Z,59.57
2018-08-10T02:38:27.914Z,59.43
2018-08-10T02:40:56.474Z,58.65
2018-08-10T02:43:25.071Z,58.26
2018-08-10T02:45:54.083Z,58.93
2018-08-10T02:48:22.693Z,58.48
2018-08-10T02:50:51.313Z,58.68
2018-08-10T02:53:20.376Z,59.22
2018-08-10T02:55:49.258Z,58.69
2018-08-10T02:58:17.869Z,59.24
2018-08-10T03:00:52.835Z,58.03
2018-08-10T03:03:21.482Z,58.82
2018-08-10T03:05:50.675Z,58.55
2018-08-10T03:08:19.417Z,58.43
2018-08-10T03:10:48.048Z,58.59
2018-08-10T03:13:16.993Z,58.84
2018-08-10T03:15:45.568Z,58.24
2018-08-10T03:18:20.417Z,58.44
2018-08-10T03:20:48.991Z,58.41
2018-08-10T03:23:18.539Z,58.80
2018-08-10T03:25:47.571Z,58.56
2018-08-10T03:28:16.570Z,58.63
2018-08-10T03:30:45.273Z,58.45
2018-08-10T03:33:14.355Z,58.75
2018-08-10T03:35:42.900Z,57.48
2018-08-10T03:38:15.974Z,57.23
2018-08-10T03:40:44.922Z,58.09
2018-08-10T03:43:13.537Z,58.00
2018-08-10T03:45:42.442Z,58.32
2018-08-10T03:48:11.369Z,58.55
2018-08-10T03:50:39.935Z,58.92
2018-08-10T03:53:08.573Z,58.74
2018-08-10T03:55:37.620Z,59.45
2018-08-10T03:58:06.570Z,59.56
2018-08-10T04:00:38.551Z,60.08
2018-08-10T04:03:08.619Z,60.08
2018-08-10T04:05:39.036Z,60.41
2018-08-10T04:08:07.579Z,60.52
2018-08-10T04:10:36.523Z,60.88
2018-08-10T04:13:05.152Z,61.08
2018-08-10T04:15:33.758Z,62.13
2018-08-10T04:18:04.611Z,62.41
2018-08-10T04:20:34.493Z,62.46
2018-08-10T04:23:03.314Z,62.48
2018-08-10T04:25:35.968Z,62.44
2018-08-10T04:28:05.423Z,62.94
2018-08-10T04:30:34.097Z,63.60
2018-08-10T04:33:03.195Z,63.96
2018-08-10T04:35:37.476Z,63.84
2018-08-10T04:38:06.352Z,63.69
2018-08-10T04:40:36.364Z,64.34
2018-08-10T04:43:05.038Z,64.10
2018-08-10T04:45:39.267Z,63.40
2018-08-10T04:48:08.355Z,63.37
2018-08-10T04:50:37.056Z,63.24
2018-08-10T04:53:05.629Z,62.93
2018-08-10T04:55:34.804Z,62.84
2018-08-10T04:58:06.656Z,63.35
2018-08-10T05:00:35.375Z,62.65
2018-08-10T05:03:06.011Z,62.12
2018-08-10T05:05:35.214Z,62.65
2018-08-10T05:08:07.628Z,61.88
2018-08-10T05:10:36.635Z,62.98
2018-08-10T05:13:05.327Z,63.14
2018-08-10T05:15:34.012Z,63.74
2018-08-10T05:18:04.341Z,63.42
2018-08-10T05:20:33.266Z,63.30
2018-08-10T05:23:02.128Z,63.90
2018-08-10T05:25:34.531Z,63.08
2018-08-10T05:30:38.286Z,62.84
2018-08-10T05:33:07.405Z,62.62
2018-08-10T05:35:36.141Z,64.07
2018-08-10T05:38:05.541Z,64.50
2018-08-10T05:40:34.629Z,63.55
2018-08-10T05:43:03.617Z,63.29
2018-08-10T05:45:32.259Z,62.33
2018-08-10T05:48:05.844Z,62.72
2018-08-10T05:50:34.665Z,61.99
2018-08-10T05:53:03.413Z,62.08
2018-08-10T05:55:33.457Z,60.60
2018-08-10T05:58:02.960Z,61.44
2018-08-10T06:00:31.602Z,60.91
2018-08-10T06:03:07.120Z,60.12
2018-08-10T06:05:35.730Z,59.48
2018-08-10T06:08:05.076Z,59.71
2018-08-10T06:10:35.235Z,59.77
2018-08-10T06:13:04.263Z,59.25
2018-08-10T06:15:33.070Z,59.44
2018-08-10T06:18:03.264Z,58.56
2018-08-10T06:20:31.924Z,58.11
2018-08-10T06:23:00.652Z,58.15
2018-08-10T06:25:34.410Z,58.29
2018-08-10T06:28:04.796Z,58.48
2018-08-10T06:30:33.519Z,59.17
2018-08-10T06:33:02.662Z,59.86
2018-08-10T06:35:31.238Z,60.80
2018-08-10T06:38:03.408Z,57.79
2018-08-10T06:40:32.300Z,57.28
2018-08-10T06:43:11.785Z,57.15
2018-08-10T06:45:40.876Z,57.13
2018-08-10T06:48:09.512Z,56.79
2018-08-10T06:50:38.099Z,56.56
2018-08-10T06:53:07.217Z,56.73
2018-08-10T06:55:35.884Z,56.21
2018-08-10T06:58:06.601Z,56.84
2018-08-10T07:00:35.724Z,56.24
2018-08-10T07:03:04.457Z,56.08
2018-08-10T07:05:33.059Z,55.46
2018-08-10T07:08:03.166Z,54.35
2018-08-10T07:10:31.722Z,53.21
2018-08-10T07:13:00.395Z,54.05
2018-08-10T07:15:29.399Z,54.01
2018-08-10T07:17:58.052Z,53.61
2018-08-10T07:20:26.659Z,55.08
2018-08-10T07:22:55.715Z,54.18
2018-08-10T07:25:24.321Z,54.50
2018-08-10T07:27:52.931Z,55.42
2018-08-10T07:30:25.096Z,54.74
2018-08-10T07:32:53.878Z,55.84
2018-08-10T07:35:27.349Z,56.50
2018-08-10T07:37:56.483Z,54.81
2018-08-10T07:40:25.345Z,55.14
2018-08-10T07:42:54.120Z,55.48
2018-08-10T07:45:23.627Z,53.57
2018-08-10T07:47:53.480Z,54.32
2018-08-10T07:50:22.436Z,54.80
2018-08-10T07:52:51.794Z,53.57
2018-08-10T07:55:20.629Z,52.86
2018-08-10T07:57:50.032Z,52.00
2018-08-10T08:00:22.226Z,51.71
2018-08-10T08:02:50.813Z,51.84
2018-08-10T08:05:19.627Z,51.51
2018-08-10T08:07:48.696Z,51.97
2018-08-10T08:10:17.579Z,52.77
2018-08-10T08:12:46.399Z,53.06
2018-08-10T08:15:20.646Z,53.50
2018-08-10T08:17:49.391Z,52.19
2018-08-10T08:20:18.392Z,52.14
2018-08-10T08:22:48.457Z,51.91
2018-08-10T08:25:17.029Z,50.87
2018-08-10T08:27:45.618Z,49.92
2018-08-10T08:30:14.865Z,49.88
2018-08-10T08:32:43.512Z,53.03
2018-08-10T08:35:12.262Z,52.60
2018-08-10T08:37:41.303Z,51.54
2018-08-10T08:40:19.312Z,51.33
2018-08-10T08:42:48.992Z,51.65
2018-08-10T08:46:20.553Z,52.30
2018-08-10T08:51:26.616Z,50.07
2018-08-10T08:55:05.302Z,49.33
2018-08-10T08:57:37.020Z,49.07
2018-08-10T09:00:12.519Z,48.67
2018-08-10T09:02:41.266Z,49.10
2018-08-10T09:05:10.408Z,49.25
2018-08-10T09:07:39.763Z,48.98
2018-08-10T09:10:10.714Z,49.07
2018-08-10T09:12:39.219Z,48.76
2018-08-10T09:15:13.237Z,49.59
2018-08-10T09:17:47.708Z,49.33
2018-08-10T09:20:24.193Z,48.78
2018-08-10T09:22:52.885Z,49.67
2018-08-10T09:25:21.491Z,49.91
2018-08-10T09:27:50.372Z,49.51
2018-08-10T09:30:19.480Z,48.96
2018-08-10T09:32:48.081Z,48.65
2018-08-10T09:35:16.983Z,49.07
2018-08-10T09:37:45.623Z,47.29
2018-08-10T09:40:19.937Z,46.58
2018-08-10T09:42:49.072Z,46.40
2018-08-10T09:45:18.300Z,45.41
2018-08-10T09:47:48.156Z,46.98
2018-08-10T09:50:17.996Z,46.16
2018-08-10T09:53:03.641Z,47.24
2018-08-10T09:55:34.829Z,46.16
2018-08-10T09:58:07.789Z,45.81
2018-08-10T10:00:44.145Z,45.53
2018-08-10T10:03:20.519Z,44.71
2018-08-10T10:05:51.038Z,45.22
2018-08-10T10:08:43.733Z,45.02
2018-08-10T10:11:14.132Z,45.58
2018-08-10T10:13:43.177Z,44.52
2018-08-10T10:16:12.621Z,44.32
2018-08-10T10:18:48.574Z,44.92
2018-08-10T10:21:17.829Z,43.56
2018-08-10T10:23:46.470Z,44.65
2018-08-10T10:26:15.064Z,44.32
2018-08-10T10:28:43.726Z,43.43
2018-08-10T10:31:19.420Z,43.22
2018-08-10T10:33:48.111Z,43.80
2018-08-10T10:36:16.967Z,44.62
2018-08-10T10:38:45.610Z,44.93
2018-08-10T10:41:14.822Z,45.64
2018-08-10T10:43:49.477Z,45.11
2018-08-10T10:46:18.762Z,44.37
2018-08-10T10:48:47.323Z,44.86
2018-08-10T10:51:17.407Z,42.41
2018-08-10T10:53:46.843Z,42.27
2018-08-10T10:56:15.576Z,40.95
2018-08-10T10:58:44.788Z,41.23
2018-08-10T11:01:25.213Z,40.85
2018-08-10T11:03:54.234Z,40.74
2018-08-10T11:06:23.032Z,40.79
2018-08-10T11:08:53.325Z,40.18
2018-08-10T11:11:22.320Z,38.64
2018-08-10T11:13:50.871Z,38.49
2018-08-10T11:16:19.643Z,39.33
2018-08-10T11:24:28.487Z,38.04
2018-08-10T11:29:30.604Z,37.06
2018-08-10T11:32:01.566Z,37.58
2018-08-10T11:34:30.212Z,36.95
2018-08-10T11:37:00.761Z,35.46
2018-08-10T11:39:29.819Z,36.11
2018-08-10T11:42:12.706Z,35.40
2018-08-10T11:44:41.381Z,33.26
2018-08-10T11:47:10.450Z,33.25
2018-08-10T11:49:39.097Z,32.44
2018-08-10T11:52:07.851Z,32.27
2018-08-10T11:54:41.006Z,32.36
2018-08-10T11:57:09.635Z,32.32
2018-08-10T11:59:38.244Z,31.37
2018-08-10T12:02:07.640Z,31.01
2018-08-10T12:04:36.228Z,30.97
2018-08-10T12:07:05.025Z,30.98
2018-08-10T12:09:34.004Z,31.95
2018-08-10T12:14:43.671Z,33.41
2018-08-10T12:17:23.403Z,32.31
2018-08-10T12:19:51.973Z,33.32
2018-08-10T12:22:23.592Z,32.61
2018-08-10T12:24:52.605Z,30.75
2018-08-10T12:27:21.202Z,30.48
2018-08-10T12:29:49.781Z,30.14
2018-08-10T12:32:18.909Z,29.05
2018-08-10T12:34:47.512Z,27.56
2018-08-10T12:37:16.271Z,27.22
2018-08-10T12:39:45.175Z,25.65
2018-08-10T12:42:13.816Z,24.42
2018-08-10T12:44:51.443Z,24.03
2018-08-10T12:47:20.060Z,24.96
2018-08-10T12:49:48.745Z,26.75
2018-08-10T12:52:17.935Z,27.98
2018-08-10T12:54:47.506Z,25.33
2018-08-10T12:57:16.095Z,25.18
2018-08-10T12:59:44.736Z,24.11
2018-08-10T13:02:13.490Z,24.88
2018-08-10T13:04:42.392Z,26.51
2018-08-10T13:09:50.636Z,29.04
2018-08-10T13:12:22.768Z,30.49
2018-08-10T13:14:51.484Z,29.96
2018-08-10T13:17:20.251Z,30.81
2018-08-10T13:19:51.155Z,30.92
2018-08-10T13:22:19.973Z,31.08
2018-08-10T13:24:55.289Z,27.31
2018-08-10T13:27:24.260Z,26.48
2018-08-10T13:29:52.892Z,25.97
2018-08-10T13:32:21.802Z,24.92
2018-08-10T13:34:50.904Z,21.94
2018-08-10T13:37:19.511Z,19.48
2018-08-10T13:39:48.215Z,22.00
2018-08-10T13:42:17.599Z,21.20
2018-08-10T13:47:28.179Z,23.49
2018-08-10T13:50:00.200Z,22.53
2018-08-10T13:52:28.843Z,18.35
2018-08-10T13:54:57.981Z,17.61
2018-08-10T13:57:27.398Z,16.23
2018-08-10T13:59:56.475Z,16.37
2018-08-10T14:05:08.584Z,16.37
2018-08-10T14:07:38.035Z,15.49
2018-08-10T14:10:08.999Z,13.37
2018-08-10T14:13:16.095Z,13.79
2018-08-10T14:15:47.677Z,14.80
2018-08-10T14:18:16.912Z,18.42
2018-08-10T14:20:45.677Z,19.12
2018-08-10T14:23:15.286Z,19.15
2018-08-10T14:25:43.901Z,22.22
2018-08-10T14:28:12.562Z,20.22
2018-08-10T14:30:41.263Z,20.54
2018-08-10T14:33:10.375Z,21.81
2018-08-10T14:35:39.132Z,19.81
2018-08-10T14:38:07.814Z,17.73
2018-08-10T14:40:37.840Z,20.66
2018-08-10T14:43:06.777Z,21.20
2018-08-10T14:45:35.482Z,20.01
2018-08-10T14:48:05.826Z,18.81
2018-08-10T14:50:34.511Z,21.62
2018-08-10T14:53:07.417Z,19.89
2018-08-10T14:55:36.076Z,18.39
2018-08-10T14:58:05.782Z,18.83
2018-08-10T15:00:34.870Z,18.58
2018-08-10T15:03:03.603Z,21.97
2018-08-10T15:05:32.237Z,24.80
2018-08-10T15:08:01.497Z,25.59
2018-08-10T15:10:36.568Z,25.62
2018-08-10T15:13:05.591Z,26.26
2018-08-10T15:15:34.279Z,25.11
2018-08-10T15:18:03.984Z,21.43
2018-08-10T15:20:33.603Z,22.41
2018-08-10T15:23:08.707Z,22.47
2018-08-10T15:25:37.739Z,25.13
2018-08-10T15:28:08.536Z,25.57
2018-08-10T15:30:37.634Z,26.69
2018-08-10T15:33:11.774Z,26.75
2018-08-10T15:35:41.160Z,24.80
2018-08-10T15:38:19.176Z,23.07
2018-08-10T15:40:48.338Z,23.78
2018-08-10T15:43:20.746Z,22.73
2018-08-10T15:45:50.150Z,20.50
2018-08-10T15:48:19.667Z,18.85
2018-08-10T15:50:49.314Z,19.31
2018-08-10T15:53:18.315Z,20.16
2018-08-10T15:55:48.840Z,20.07
2018-08-10T15:58:18.770Z,22.33
2018-08-10T16:00:48.036Z,19.47
2018-08-10T16:03:21.897Z,21.51
2018-08-10T16:05:51.649Z,20.85
2018-08-10T16:08:25.943Z,20.64
2018-08-10T16:10:55.831Z,20.12
2018-08-10T16:13:24.893Z,20.06
2018-08-10T16:15:54.417Z,21.55
2018-08-10T16:18:24.283Z,21.11
2018-08-10T16:20:54.556Z,20.35
2018-08-10T16:23:24.123Z,21.79
2018-08-10T16:25:58.750Z,22.13
2018-08-10T16:28:27.534Z,22.84
2018-08-10T16:30:57.042Z,23.98
2018-08-10T16:33:29.269Z,24.62
2018-08-10T16:35:58.566Z,24.35
2018-08-10T16:38:27.856Z,23.47
2018-08-10T16:40:57.275Z,24.10
2018-08-10T16:43:27.545Z,22.78
2018-08-10T16:45:56.535Z,22.62
2018-08-10T16:48:25.994Z,23.07
2018-08-10T16:50:59.262Z,22.56
2018-08-10T16:53:28.381Z,23.06
2018-08-10T16:55:58.150Z,22.50
2018-08-10T16:58:30.500Z,23.77
2018-08-10T17:00:59.639Z,23.07
2018-08-10T17:03:29.599Z,24.31
2018-08-10T17:06:04.042Z,26.43
2018-08-10T17:08:43.637Z,26.67
2018-08-10T17:11:13.244Z,25.76
2018-08-10T17:13:42.136Z,25.64
2018-08-10T17:16:10.899Z,26.38
2018-08-10T17:18:40.030Z,26.73
2018-08-10T17:21:09.734Z,25.94
2018-08-10T17:23:38.418Z,25.42
2018-08-10T17:26:11.464Z,25.18
2018-08-10T17:28:40.357Z,25.27
2018-08-10T17:31:14.055Z,25.56
2018-08-10T17:36:58.184Z,25.32
2018-08-10T17:39:27.605Z,25.30
2018-08-10T17:41:56.907Z,25.71
2018-08-10T17:44:26.118Z,26.86
2018-08-10T17:46:55.190Z,26.86
2018-08-10T17:49:23.789Z,27.11
2018-08-10T17:51:52.514Z,27.44
2018-08-10T17:54:21.650Z,27.64
2018-08-10T17:56:50.498Z,28.24
2018-08-10T17:59:19.222Z,29.42
2018-08-10T18:04:21.379Z,29.21
2018-08-10T18:06:55.640Z,29.32
2018-08-10T18:09:24.514Z,29.70
2018-08-10T18:11:53.155Z,30.27
2018-08-10T18:14:25.762Z,30.51
2018-08-10T18:16:54.846Z,29.88
2018-08-10T18:19:23.646Z,31.32
2018-08-10T18:21:52.462Z,31.35
2018-08-10T18:24:21.737Z,31.50
2018-08-10T18:26:50.602Z,31.56
2018-08-10T18:29:19.594Z,32.06
2018-08-10T18:31:49.161Z,31.56
2018-08-10T18:34:18.499Z,32.39
2018-08-10T18:36:47.295Z,32.04
2018-08-10T18:39:18.854Z,31.48
2018-08-10T18:41:47.706Z,31.66
2018-08-10T18:44:17.037Z,31.95
2018-08-10T18:46:46.453Z,32.46
2018-08-10T18:49:15.330Z,32.73
2018-08-10T18:51:44.562Z,31.99
2018-08-10T18:54:21.053Z,32.98
2018-08-10T18:56:50.098Z,32.46
2018-08-10T18:59:18.699Z,33.28
2018-08-10T19:01:49.410Z,32.65
2018-08-10T19:04:18.147Z,32.78
2018-08-10T19:06:46.894Z,33.67
2018-08-10T19:09:16.934Z,33.42
2018-08-10T19:11:45.548Z,33.66
2018-08-10T19:14:14.129Z,33.73
2018-08-10T19:16:43.099Z,33.09
2018-08-10T19:19:11.875Z,33.04
2018-08-10T19:21:40.946Z,33.63
2018-08-10T19:24:13.410Z,33.71
2018-08-10T19:26:42.059Z,33.58
2018-08-10T19:29:10.984Z,34.01
2018-08-10T19:31:46.402Z,32.83
2018-08-10T19:34:15.370Z,32.92
2018-08-10T19:36:44.203Z,33.63
2018-08-10T19:39:13.248Z,32.85
2018-08-10T19:41:42.076Z,33.79
2018-08-10T19:44:12.830Z,33.19
2018-08-10T19:46:42.372Z,33.51
2018-08-10T19:49:12.875Z,33.36
2018-08-10T19:51:41.596Z,33.31
2018-08-10T19:54:10.796Z,33.09
2018-08-10T19:56:39.464Z,34.11
2018-08-10T19:59:08.205Z,33.33
2018-08-10T20:01:38.318Z,33.24
2018-08-10T20:04:06.959Z,33.24
2018-08-10T20:06:35.665Z,33.75
2018-08-10T20:09:07.116Z,33.46
2018-08-10T20:11:35.898Z,32.93
2018-08-10T20:14:06.382Z,33.53
2018-08-10T20:16:37.579Z,33.34
2018-08-10T20:19:06.412Z,33.64
2018-08-10T20:21:42.952Z,33.47
2018-08-10T20:24:11.899Z,33.19
2018-08-10T20:26:40.589Z,33.83
2018-08-10T20:29:11.743Z,33.54
2018-08-10T20:31:40.394Z,33.78
2018-08-10T20:34:11.034Z,33.44
2018-08-10T20:36:40.081Z,34.17
2018-08-10T20:39:11.381Z,34.61
2018-08-10T20:41:40.173Z,34.48
2018-08-10T20:44:09.125Z,34.52
2018-08-10T20:46:38.833Z,33.99
2018-08-10T20:49:07.601Z,33.17
2018-08-10T20:51:39.581Z,34.05
2018-08-10T20:54:08.289Z,33.95
2018-08-10T20:56:37.199Z,34.04
2018-08-10T20:59:05.917Z,33.79
2018-08-10T21:01:34.571Z,33.89
2018-08-10T21:04:04.436Z,33.58
2018-08-10T21:06:33.132Z,34.17
2018-08-10T21:09:01.960Z,34.48
2018-08-10T21:11:31.331Z,34.48
2018-08-10T21:13:59.975Z,33.77
2018-08-10T21:16:28.558Z,34.42
2018-08-10T21:18:57.604Z,34.10
2018-08-10T21:21:26.187Z,34.20
2018-08-10T21:23:54.797Z,34.33
2018-08-10T21:26:29.245Z,34.50
2018-08-10T21:28:58.059Z,34.62
2018-08-10T21:31:26.717Z,34.74
2018-08-10T21:33:55.548Z,34.05
2018-08-10T21:36:24.371Z,34.35
2018-08-10T21:38:53.486Z,33.94
2018-08-10T21:41:22.138Z,34.02
2018-08-10T21:43:50.999Z,33.26
2018-08-10T21:46:20.466Z,33.74
2018-08-10T21:48:49.917Z,34.71
2018-08-10T21:53:58.816Z,33.97
2018-08-10T21:56:27.458Z,34.84
2018-08-10T21:58:56.043Z,34.36
2018-08-10T22:01:25.176Z,34.55
2018-08-10T22:03:54.021Z,34.75
2018-08-10T22:06:22.607Z,34.65
2018-08-10T22:08:51.707Z,34.08
2018-08-10T22:11:20.310Z,34.22
2018-08-10T22:13:56.324Z,34.96
2018-08-10T22:16:30.018Z,33.99
2018-08-10T22:19:04.258Z,34.24
2018-08-10T22:21:33.359Z,35.23
2018-08-10T22:24:02.594Z,34.91
2018-08-10T22:26:31.236Z,35.53
2018-08-10T22:28:59.926Z,35.60
2018-08-10T22:31:32.133Z,35.17
2018-08-10T22:34:01.294Z,34.99
2018-08-10T22:36:31.574Z,34.71
2018-08-10T22:39:00.122Z,35.29
2018-08-10T22:41:36.580Z,35.05
2018-08-10T22:44:05.728Z,34.99
2018-08-10T22:46:34.282Z,35.26
2018-08-10T22:49:04.564Z,34.62
2018-08-10T22:51:33.157Z,35.00
2018-08-10T22:54:11.712Z,35.29
2018-08-10T22:56:40.620Z,35.32
2018-08-10T22:59:09.229Z,35.49
2018-08-10T23:01:42.546Z,35.74
2018-08-10T23:04:11.587Z,35.50
2018-08-10T23:06:42.107Z,35.92
2018-08-10T23:09:11.890Z,35.46
2018-08-10T23:11:46.780Z,36.23
2018-08-10T23:14:15.370Z,36.37
2018-08-10T23:16:48.683Z,36.28
2018-08-10T23:19:17.814Z,36.08
2018-08-10T23:21:46.627Z,37.00
2018-08-10T23:24:15.266Z,36.58
2018-08-10T23:26:47.708Z,35.90
2018-08-10T23:29:16.296Z,36.55
2018-08-10T23:31:50.599Z,35.76
2018-08-10T23:34:19.415Z,35.89
2018-08-10T23:37:18.554Z,36.70
2018-08-10T23:39:50.593Z,35.72
2018-08-10T23:42:19.431Z,36.63
2018-08-10T23:44:48.037Z,36.73
2018-08-10T23:47:16.924Z,36.39
2018-08-10T23:49:45.505Z,36.76
2018-08-10T23:52:14.083Z,36.88
2018-08-10T23:54:43.051Z,36.96
2018-08-10T23:57:11.659Z,37.10
2018-08-10T23:59:40.263Z,36.59
